createdAt,value
2023-04-11T00:00:35.790Z,94838.47
2023-04-11T00:03:44.262Z,94830.94
2023-04-11T00:06:52.540Z,94835.34
2023-04-11T00:10:03.218Z,94831.09
2023-04-11T00:13:11.573Z,94813.72
2023-04-11T00:16:20.528Z,94802.09
2023-04-11T00:19:29.232Z,94795.31
2023-04-11T00:22:38.925Z,94801.06
2023-04-11T00:25:48.662Z,94791.88
2023-04-11T00:28:57.231Z,94786.88
2023-04-11T00:32:05.981Z,94781.25
2023-04-11T00:35:14.525Z,94775.00
2023-04-11T00:38:22.630Z,94774.00
2023-04-11T00:41:32.126Z,94782.94
2023-04-11T00:44:40.249Z,94777.44
2023-04-11T00:47:48.452Z,94764.69
2023-04-11T00:50:57.652Z,94756.34
2023-04-11T00:54:09.411Z,94738.59
2023-04-11T00:57:19.916Z,94728.34
2023-04-11T01:00:29.565Z,94725.19
2023-04-11T01:03:41.293Z,94721.94
2023-04-11T01:06:56.416Z,94710.50
2023-04-11T01:10:07.058Z,94713.34
2023-04-11T01:13:16.964Z,94718.63
2023-04-11T01:16:25.704Z,94722.31
2023-04-11T01:19:34.790Z,94728.22
2023-04-11T01:22:44.217Z,94724.72
2023-04-11T01:25:54.451Z,94739.63
2023-04-11T01:29:03.809Z,94747.41
2023-04-11T01:32:12.190Z,94743.09
2023-04-11T01:35:20.606Z,94739.25
2023-04-11T01:38:29.005Z,94722.69
2023-04-11T01:41:40.692Z,94713.25
2023-04-11T01:44:49.563Z,94716.16
2023-04-11T01:47:58.127Z,94736.22
2023-04-11T01:51:07.624Z,94722.13
2023-04-11T01:54:16.087Z,94721.94
2023-04-11T01:57:27.203Z,94715.88
2023-04-11T02:00:36.897Z,94706.53
2023-04-11T02:03:45.148Z,94722.50
2023-04-11T02:06:53.545Z,94731.28
2023-04-11T02:10:01.924Z,94721.56
2023-04-11T02:13:11.954Z,94694.47
2023-04-11T02:16:20.785Z,94688.44
2023-04-11T02:19:29.826Z,94694.84
2023-04-11T02:22:37.976Z,94672.16
2023-04-11T02:25:48.943Z,94674.03
2023-04-11T02:29:00.828Z,94660.94
2023-04-11T02:32:09.039Z,94652.56
2023-04-11T02:35:17.591Z,94658.56
2023-04-11T02:38:25.822Z,94638.06
2023-04-11T02:41:34.055Z,94636.03
2023-04-11T02:44:43.536Z,94634.63
2023-04-11T02:47:51.777Z,94629.13
2023-04-11T02:51:00.048Z,94606.78
2023-04-11T02:54:08.696Z,94608.66
2023-04-11T02:57:18.849Z,94616.47
2023-04-11T03:00:29.275Z,94615.22
2023-04-11T03:03:44.195Z,94626.69
2023-04-11T03:06:54.495Z,94623.81
2023-04-11T03:10:02.947Z,94615.25
2023-04-11T03:13:11.090Z,94602.34
2023-04-11T03:16:21.103Z,94604.00
2023-04-11T03:19:29.272Z,94612.59
2023-04-11T03:22:39.301Z,94613.19
2023-04-11T03:25:48.021Z,94606.22
2023-04-11T03:28:58.362Z,94610.19
2023-04-11T03:32:08.938Z,94607.91
2023-04-11T03:35:20.522Z,94587.44
2023-04-11T03:38:30.992Z,94570.88
2023-04-11T03:41:39.383Z,94573.78
2023-04-11T03:44:50.849Z,94575.88
2023-04-11T03:48:00.563Z,94565.88
2023-04-11T03:51:18.524Z,94568.59
2023-04-11T03:54:41.843Z,94562.66
2023-04-11T03:57:51.656Z,94568.97
2023-04-11T04:01:00.107Z,94559.16
2023-04-11T04:04:11.291Z,94567.53
2023-04-11T04:07:23.906Z,94564.25
2023-04-11T04:10:36.296Z,94555.47
2023-04-11T04:13:45.695Z,94549.94
2023-04-11T04:16:57.553Z,94551.78
2023-04-11T04:20:11.326Z,94542.97
2023-04-11T04:23:21.432Z,94544.00
2023-04-11T04:26:40.015Z,94542.78
2023-04-11T04:30:15.643Z,94538.72
2023-04-11T04:33:42.658Z,94546.47
2023-04-11T04:36:59.465Z,94544.00
2023-04-11T04:40:20.648Z,94552.00
2023-04-11T04:43:38.025Z,94564.06
2023-04-11T04:46:55.453Z,94564.47
2023-04-11T04:50:07.478Z,94585.53
2023-04-11T04:53:16.932Z,94589.81
2023-04-11T04:56:32.759Z,94591.41
2023-04-11T04:59:41.679Z,94598.00
2023-04-11T05:02:55.119Z,94584.25
2023-04-11T05:06:07.020Z,94584.59
2023-04-11T05:09:19.198Z,94580.66
2023-04-11T05:12:29.354Z,94591.53
2023-04-11T05:15:49.168Z,94622.38
2023-04-11T05:18:57.807Z,94606.75
2023-04-11T05:22:05.981Z,94623.16
2023-04-11T05:25:21.174Z,94623.03
2023-04-11T05:28:32.251Z,94613.84
2023-04-11T05:31:41.352Z,94618.56
2023-04-11T05:34:59.818Z,94630.06
2023-04-11T05:38:16.471Z,94633.38
2023-04-11T05:41:26.001Z,94619.88
2023-04-11T05:44:34.083Z,94612.31
2023-04-11T05:47:42.928Z,94613.34
2023-04-11T05:50:51.813Z,94619.72
2023-04-11T05:53:59.917Z,94620.94
2023-04-11T05:57:09.493Z,94616.03
2023-04-11T06:00:19.065Z,94614.81
2023-04-11T06:03:27.659Z,94595.56
2023-04-11T06:06:36.099Z,94595.78
2023-04-11T06:09:44.322Z,94604.38
2023-04-11T06:12:54.142Z,94612.19
2023-04-11T06:16:03.107Z,94602.53
2023-04-11T06:19:12.250Z,94606.03
2023-04-11T06:22:20.304Z,94605.59
2023-04-11T06:25:28.552Z,94616.03
2023-04-11T06:28:38.107Z,94602.72
2023-04-11T06:31:46.460Z,94612.34
2023-04-11T06:34:54.722Z,94607.81
2023-04-11T06:38:02.814Z,94614.78
2023-04-11T06:41:10.859Z,94618.25
2023-04-11T06:44:20.369Z,94620.47
2023-04-11T06:47:28.574Z,94619.69
2023-04-11T06:50:39.479Z,94622.38
2023-04-11T06:53:47.552Z,94625.63
2023-04-11T06:56:57.184Z,94631.19
2023-04-11T07:00:09.505Z,94637.34
2023-04-11T07:03:18.326Z,94652.88
2023-04-11T07:06:27.119Z,94656.13
2023-04-11T07:09:35.364Z,94654.06
2023-04-11T07:12:43.459Z,94665.09
2023-04-11T07:15:52.946Z,94681.00
2023-04-11T07:19:01.037Z,94671.19
2023-04-11T07:22:09.142Z,94667.91
2023-04-11T07:25:17.343Z,94682.81
2023-04-11T07:28:25.763Z,94678.06
2023-04-11T07:31:35.692Z,94678.69
2023-04-11T07:34:43.831Z,94682.91
2023-04-11T07:37:53.606Z,94677.22
2023-04-11T07:41:03.728Z,94681.31
2023-04-11T07:44:11.846Z,94686.19
2023-04-11T07:47:21.894Z,94700.44
2023-04-11T07:50:31.103Z,94706.59
2023-04-11T07:53:39.214Z,94707.41
2023-04-11T07:56:47.609Z,94706.16
2023-04-11T07:59:57.005Z,94719.59
2023-04-11T08:03:09.557Z,94731.44
2023-04-11T08:06:17.866Z,94735.50
2023-04-11T08:09:27.557Z,94725.88
2023-04-11T08:12:35.692Z,94728.78
2023-04-11T08:15:43.987Z,94738.56
2023-04-11T08:18:53.425Z,94735.91
2023-04-11T08:22:01.586Z,94747.38
2023-04-11T08:25:12.226Z,94757.00
2023-04-11T08:28:20.884Z,94757.56
2023-04-11T08:31:29.471Z,94763.72
2023-04-11T08:34:38.942Z,94772.06
2023-04-11T08:37:47.005Z,94777.13
2023-04-11T08:40:56.577Z,94774.41
2023-04-11T08:44:04.778Z,94777.84
2023-04-11T08:47:16.521Z,94782.34
2023-04-11T08:50:26.290Z,94776.81
2023-04-11T08:53:39.874Z,94789.34
2023-04-11T08:56:47.984Z,94794.97
2023-04-11T09:00:00.196Z,94778.78
2023-04-11T09:03:12.523Z,94786.41
2023-04-11T09:06:22.421Z,94796.19
2023-04-11T09:09:31.407Z,94779.25
2023-04-11T09:12:39.557Z,94792.13
2023-04-11T09:15:47.836Z,94802.06
2023-04-11T09:18:56.139Z,94802.00
2023-04-11T09:22:06.261Z,94804.06
2023-04-11T09:25:14.698Z,94813.19
2023-04-11T09:28:22.991Z,94832.91
2023-04-11T09:31:43.183Z,94827.22
2023-04-11T09:34:51.296Z,94819.69
2023-04-11T09:38:03.484Z,94828.22
2023-04-11T09:41:12.051Z,94835.25
2023-04-11T09:44:20.307Z,94831.34
2023-04-11T09:47:33.854Z,94845.41
2023-04-11T09:50:44.190Z,94835.75
2023-04-11T09:53:54.175Z,94833.59
2023-04-11T09:57:06.293Z,94825.88
2023-04-11T10:00:16.897Z,94841.50
2023-04-11T10:03:26.716Z,94836.88
2023-04-11T10:06:46.698Z,94847.00
2023-04-11T10:09:56.400Z,94860.22
2023-04-11T10:13:40.852Z,94858.34
2023-04-11T10:17:16.278Z,94861.34
2023-04-11T10:20:46.607Z,94855.28
2023-04-11T10:24:14.065Z,94854.44
2023-04-11T10:27:50.383Z,94863.63
2023-04-11T10:31:04.732Z,94877.84
2023-04-11T10:34:15.373Z,94872.41
2023-04-11T10:37:34.670Z,94883.91
2023-04-11T10:41:19.070Z,94871.94
2023-04-11T10:44:28.603Z,94883.69
2023-04-11T10:47:37.577Z,94884.69
2023-04-11T10:50:46.724Z,94870.34
2023-04-11T10:53:59.518Z,94877.19
2023-04-11T10:57:07.970Z,94888.78
2023-04-11T11:00:20.431Z,94893.97
2023-04-11T11:03:34.144Z,94891.91
2023-04-11T11:06:47.191Z,94898.84
2023-04-11T11:10:02.973Z,94900.31
2023-04-11T11:13:11.603Z,94913.31
2023-04-11T11:16:23.690Z,94894.41
2023-04-11T11:19:32.739Z,94867.09
2023-04-11T11:22:40.908Z,94891.03
2023-04-11T11:25:55.086Z,94890.81
2023-04-11T11:29:03.535Z,94896.09
2023-04-11T11:32:24.748Z,94901.38
2023-04-11T11:35:33.122Z,94903.03
2023-04-11T11:38:41.489Z,94909.34
2023-04-11T11:41:50.443Z,94908.50
2023-04-11T11:45:17.158Z,94913.44
2023-04-11T11:48:26.718Z,94918.63
2023-04-11T11:51:42.475Z,94927.03
2023-04-11T11:54:50.688Z,94916.53
2023-04-11T11:58:03.677Z,94920.13
2023-04-11T12:01:17.110Z,94913.53
2023-04-11T12:04:27.377Z,94925.22
2023-04-11T12:07:39.471Z,94914.47
2023-04-11T12:10:48.680Z,94927.88
2023-04-11T12:13:57.048Z,94919.81
2023-04-11T12:17:05.585Z,94929.09
2023-04-11T12:20:16.180Z,94914.59
2023-04-11T12:23:24.472Z,94919.34
2023-04-11T12:26:32.969Z,94904.25
2023-04-11T12:29:41.280Z,94903.25
2023-04-11T12:32:49.717Z,94918.00
2023-04-11T12:35:59.293Z,94900.34
2023-04-11T12:39:08.207Z,94903.69
2023-04-11T12:42:21.017Z,94910.72
2023-04-11T12:45:34.020Z,94904.63
2023-04-11T12:48:42.480Z,94909.69
2023-04-11T12:51:52.125Z,94915.88
2023-04-11T12:55:00.774Z,94910.91
2023-04-11T12:58:09.418Z,94901.47
2023-04-11T13:01:18.305Z,94903.31
2023-04-11T13:04:26.595Z,94911.94
2023-04-11T13:07:36.819Z,94916.94
2023-04-11T13:10:47.020Z,94914.81
2023-04-11T13:13:57.656Z,94910.59
2023-04-11T13:17:06.077Z,94913.88
2023-04-11T13:20:14.557Z,94903.69
2023-04-11T13:23:25.948Z,94898.16
2023-04-11T13:26:35.079Z,94900.56
2023-04-11T13:29:43.180Z,94892.72
2023-04-11T13:32:52.334Z,94889.59
2023-04-11T13:36:00.758Z,94889.22
2023-04-11T13:39:11.302Z,94894.94
2023-04-11T13:42:21.691Z,94903.44
2023-04-11T13:45:29.859Z,94887.91
2023-04-11T13:48:38.422Z,94877.06
2023-04-11T13:51:47.353Z,94887.53
2023-04-11T13:54:56.920Z,94881.56
2023-04-11T13:58:05.098Z,94865.03
2023-04-11T14:01:13.385Z,94871.16
2023-04-11T14:04:21.727Z,94864.78
2023-04-11T14:07:30.598Z,94881.94
2023-04-11T14:10:40.228Z,94870.28
2023-04-11T14:13:48.795Z,94874.78
2023-04-11T14:16:56.983Z,94863.69
2023-04-11T14:20:06.834Z,94858.88
2023-04-11T14:23:16.637Z,94860.31
2023-04-11T14:26:26.913Z,94861.75
2023-04-11T14:29:37.414Z,94860.91
2023-04-11T14:32:45.713Z,94862.19
2023-04-11T14:35:53.996Z,94872.19
2023-04-11T14:39:02.219Z,94875.31
2023-04-11T14:42:11.896Z,94880.28
2023-04-11T14:45:20.221Z,94869.22
2023-04-11T14:48:28.867Z,94862.25
2023-04-11T14:51:38.052Z,94870.00
2023-04-11T14:54:46.320Z,94862.59
2023-04-11T14:57:57.132Z,94860.97
2023-04-11T15:01:05.660Z,94865.13
2023-04-11T15:04:14.560Z,94860.03
2023-04-11T15:07:23.274Z,94870.63
2023-04-11T15:10:32.069Z,94858.06
2023-04-11T15:13:42.644Z,94858.72
2023-04-11T15:16:52.006Z,94858.72
2023-04-11T15:20:00.629Z,94845.22
2023-04-11T15:23:09.011Z,94842.66
2023-04-11T15:26:17.876Z,94836.56
2023-04-11T15:29:28.235Z,94836.06
2023-04-11T15:32:37.147Z,94838.50
2023-04-11T15:35:49.441Z,94823.66
2023-04-11T15:39:02.018Z,94832.91
2023-04-11T15:42:10.366Z,94820.06
2023-04-11T15:45:20.433Z,94814.53
2023-04-11T15:48:28.856Z,94826.97
2023-04-11T15:51:37.079Z,94843.63
2023-04-11T15:54:45.588Z,94831.16
2023-04-11T15:57:53.890Z,94830.31
2023-04-11T16:01:03.644Z,94826.16
2023-04-11T16:04:12.164Z,94831.06
2023-04-11T16:07:23.082Z,94825.47
2023-04-11T16:10:32.393Z,94826.44
2023-04-11T16:13:40.580Z,94834.25
2023-04-11T16:16:50.830Z,94832.38
2023-04-11T16:19:59.106Z,94820.25
2023-04-11T16:23:07.259Z,94828.75
2023-04-11T16:26:16.092Z,94818.13
2023-04-11T16:29:24.769Z,94829.53
2023-04-11T16:32:34.401Z,94823.16
2023-04-11T16:35:42.624Z,94825.06
2023-04-11T16:38:50.993Z,94824.13
2023-04-11T16:41:59.188Z,94823.75
2023-04-11T16:45:09.898Z,94824.19
2023-04-11T16:48:19.786Z,94823.75
2023-04-11T16:51:28.436Z,94835.50
2023-04-11T16:54:36.680Z,94817.75
2023-04-11T16:57:44.903Z,94827.38
2023-04-11T17:00:53.830Z,94833.28
2023-04-11T17:04:03.570Z,94830.75
2023-04-11T17:07:11.816Z,94834.28
2023-04-11T17:10:21.433Z,94831.56
2023-04-11T17:13:29.850Z,94827.28
2023-04-11T17:16:38.021Z,94829.25
2023-04-11T17:19:47.786Z,94841.91
2023-04-11T17:22:55.947Z,94833.50
2023-04-11T17:26:04.482Z,94833.88
2023-04-11T17:29:12.900Z,94835.88
2023-04-11T17:32:21.285Z,94838.28
2023-04-11T17:35:30.867Z,94841.53
2023-04-11T17:38:40.366Z,94848.66
2023-04-11T17:41:48.570Z,94841.97
2023-04-11T17:44:58.884Z,94853.06
2023-04-11T17:48:09.313Z,94846.06
2023-04-11T17:51:18.774Z,94847.47
2023-04-11T17:54:26.874Z,94841.16
2023-04-11T17:57:35.163Z,94842.56
2023-04-11T18:00:55.600Z,94840.44
2023-04-11T18:04:07.614Z,94827.41
2023-04-11T18:07:18.265Z,94837.88
2023-04-11T18:10:29.224Z,94847.41
2023-04-11T18:13:37.482Z,94839.06
2023-04-11T18:16:47.568Z,94851.28
2023-04-11T18:19:55.755Z,94845.44
2023-04-11T18:23:05.261Z,94848.34
2023-04-11T18:26:13.312Z,94850.03
2023-04-11T18:29:21.538Z,94857.69
2023-04-11T18:32:36.739Z,94860.44
2023-04-11T18:35:47.470Z,94873.25
2023-04-11T18:38:57.025Z,94868.22
2023-04-11T18:42:05.950Z,94864.97
2023-04-11T18:45:15.635Z,94863.38
2023-04-11T18:48:25.024Z,94864.69
2023-04-11T18:51:35.633Z,94861.78
2023-04-11T18:54:45.532Z,94865.44
2023-04-11T18:57:57.135Z,94872.41
2023-04-11T19:01:15.642Z,94874.75
2023-04-11T19:04:26.295Z,94874.59
2023-04-11T19:07:36.192Z,94872.69
2023-04-11T19:10:46.264Z,94872.25
2023-04-11T19:13:55.138Z,94868.75
2023-04-11T19:17:04.213Z,94866.13
2023-04-11T19:20:13.624Z,94869.38
2023-04-11T19:23:22.007Z,94863.34
2023-04-11T19:26:32.338Z,94853.81
2023-04-11T19:29:40.482Z,94859.38
2023-04-11T19:32:48.729Z,94864.50
2023-04-11T19:35:57.167Z,94868.00
2023-04-11T19:39:06.401Z,94876.91
2023-04-11T19:42:16.346Z,94874.97
2023-04-11T19:45:24.526Z,94872.66
2023-04-11T19:48:33.060Z,94862.41
2023-04-11T19:51:41.843Z,94860.44
2023-04-11T19:54:50.105Z,94855.00
2023-04-11T19:57:59.630Z,94850.06
2023-04-11T20:01:08.305Z,94846.25
2023-04-11T20:04:17.598Z,94854.81
2023-04-11T20:07:25.965Z,94853.22
2023-04-11T20:10:34.970Z,94849.75
2023-04-11T20:13:45.223Z,94843.84
2023-04-11T20:16:54.604Z,94836.28
2023-04-11T20:20:06.579Z,94837.28
2023-04-11T20:23:16.562Z,94830.19
2023-04-11T20:26:24.927Z,94827.22
2023-04-11T20:29:34.593Z,94829.84
2023-04-11T20:32:44.250Z,94826.91
2023-04-11T20:35:54.755Z,94823.59
2023-04-11T20:39:03.205Z,94829.53
2023-04-11T20:42:12.372Z,94830.19
2023-04-11T20:45:22.147Z,94819.66
2023-04-11T20:48:32.055Z,94823.28
2023-04-11T20:51:40.140Z,94823.59
2023-04-11T20:54:48.854Z,94827.56
2023-04-11T20:57:57.414Z,94832.47
2023-04-11T21:01:07.388Z,94826.56
2023-04-11T21:04:17.816Z,94822.94
2023-04-11T21:07:26.342Z,94818.31
2023-04-11T21:10:34.603Z,94814.69
2023-04-11T21:13:42.741Z,94814.03
2023-04-11T21:16:52.292Z,94809.59
2023-04-11T21:20:00.476Z,94806.97
2023-04-11T21:23:08.683Z,94807.78
2023-04-11T21:26:16.891Z,94813.53
2023-04-11T21:29:25.632Z,94804.13
2023-04-11T21:32:35.323Z,94800.84
2023-04-11T21:35:43.521Z,94786.69
2023-04-11T21:38:51.743Z,94790.13
2023-04-11T21:42:00.218Z,94794.25
2023-04-11T21:45:10.046Z,94781.56
2023-04-11T21:48:19.531Z,94775.00
2023-04-11T21:51:28.859Z,94772.19
2023-04-11T21:54:37.059Z,94775.31
2023-04-11T21:57:45.284Z,94773.84
2023-04-11T22:00:53.441Z,94771.38
2023-04-11T22:04:03.652Z,94758.38
2023-04-11T22:07:14.982Z,94755.41
2023-04-11T22:10:32.433Z,94751.28
2023-04-11T22:13:46.952Z,94746.16
2023-04-11T22:16:58.183Z,94743.56
2023-04-11T22:20:11.173Z,94741.91
2023-04-11T22:23:19.352Z,94733.03
2023-04-11T22:26:33.958Z,94731.50
2023-04-11T22:29:42.338Z,94732.69
2023-04-11T22:32:51.216Z,94727.44
2023-04-11T22:36:00.877Z,94716.56
2023-04-11T22:39:10.537Z,94713.47
2023-04-11T22:42:18.933Z,94712.31
2023-04-11T22:45:27.345Z,94709.19
2023-04-11T22:48:36.445Z,94700.94
2023-04-11T22:51:46.176Z,94699.16
2023-04-11T22:54:57.174Z,94697.53
2023-04-11T22:58:05.481Z,94688.28
2023-04-11T23:01:14.628Z,94686.97
2023-04-11T23:04:23.316Z,94685.47
2023-04-11T23:07:33.318Z,94682.31
2023-04-11T23:10:42.466Z,94671.97
2023-04-11T23:13:50.548Z,94671.00
2023-04-11T23:16:58.853Z,94675.78
2023-04-11T23:20:11.121Z,94660.00
2023-04-11T23:23:21.138Z,94663.63
2023-04-11T23:26:29.246Z,94658.84
2023-04-11T23:29:37.945Z,94650.94
2023-04-11T23:32:46.149Z,94636.47
2023-04-11T23:35:54.622Z,94640.91
2023-04-11T23:39:05.805Z,94632.34
2023-04-11T23:42:13.939Z,94624.00
2023-04-11T23:45:22.859Z,94616.56
2023-04-11T23:48:31.243Z,94613.44
2023-04-11T23:51:41.238Z,94609.31
2023-04-11T23:54:50.939Z,94602.38
2023-04-11T23:57:59.365Z,94595.47
